sensor_id;sensor_type;location;lat;lon;timestamp;P1;durP1;ratioP1;P2;durP2;ratioP2
14169;SDS011;63889;50.596;8.690;2023-01-15T00:00:56;1.83;;;0.47;;
14169;SDS011;63889;50.596;8.690;2023-01-15T00:03:21;0.90;;;0.20;;
14169;SDS011;63889;50.596;8.690;2023-01-15T00:05:47;0.88;;;0.20;;
14169;SDS011;63889;50.596;8.690;2023-01-15T00:08:12;2.03;;;0.30;;
14169;SDS011;63889;50.596;8.690;2023-01-15T00:10:38;0.50;;;0.20;;
14169;SDS011;63889;50.596;8.690;2023-01-15T00:13:03;0.50;;;0.45;;
14169;SDS011;63889;50.596;8.690;2023-01-15T00:15:29;0.50;;;0.38;;
14169;SDS011;63889;50.596;8.690;2023-01-15T00:17:55;0.08;;;0.08;;
14169;SDS011;63889;50.596;8.690;2023-01-15T00:20:20;0.20;;;0.20;;
14169;SDS011;63889;50.596;8.690;2023-01-15T00:22:46;1.95;;;0.32;;
14169;SDS011;63889;50.596;8.690;2023-01-15T00:25:11;1.23;;;0.68;;
14169;SDS011;63889;50.596;8.690;2023-01-15T00:27:55;2.45;;;0.95;;
14169;SDS011;63889;50.596;8.690;2023-01-15T00:30:21;1.35;;;0.70;;
14169;SDS011;63889;50.596;8.690;2023-01-15T00:32:48;2.38;;;0.70;;
14169;SDS011;63889;50.596;8.690;2023-01-15T00:35:15;1.02;;;0.43;;
14169;SDS011;63889;50.596;8.690;2023-01-15T00:37:42;1.23;;;0.20;;
14169;SDS011;63889;50.596;8.690;2023-01-15T00:40:08;0.95;;;0.30;;
14169;SDS011;63889;50.596;8.690;2023-01-15T00:42:34;1.00;;;0.30;;
14169;SDS011;63889;50.596;8.690;2023-01-15T00:45:00;0.77;;;0.28;;
14169;SDS011;63889;50.596;8.690;2023-01-15T00:47:33;1.67;;;0.60;;
14169;SDS011;63889;50.596;8.690;2023-01-15T00:50:03;0.40;;;0.30;;
14169;SDS011;63889;50.596;8.690;2023-01-15T00:52:30;0.82;;;0.30;;
14169;SDS011;63889;50.596;8.690;2023-01-15T00:54:56;0.28;;;0.20;;
14169;SDS011;63889;50.596;8.690;2023-01-15T00:57:21;0.50;;;0.30;;
14169;SDS011;63889;50.596;8.690;2023-01-15T00:59:47;0.55;;;0.30;;
14169;SDS011;63889;50.596;8.690;2023-01-15T01:02:12;1.10;;;0.40;;
14169;SDS011;63889;50.596;8.690;2023-01-15T01:04:38;0.57;;;0.30;;
14169;SDS011;63889;50.596;8.690;2023-01-15T01:07:04;4.38;;;0.95;;
14169;SDS011;63889;50.596;8.690;2023-01-15T01:09:29;1.17;;;0.52;;
14169;SDS011;63889;50.596;8.690;2023-01-15T01:11:55;0.55;;;0.50;;
14169;SDS011;63889;50.596;8.690;2023-01-15T01:14:20;0.20;;;0.20;;
14169;SDS011;63889;50.596;8.690;2023-01-15T01:16:47;1.10;;;0.60;;
14169;SDS011;63889;50.596;8.690;2023-01-15T01:19:14;1.75;;;0.35;;
14169;SDS011;63889;50.596;8.690;2023-01-15T01:21:42;0.75;;;0.50;;
14169;SDS011;63889;50.596;8.690;2023-01-15T01:24:09;2.15;;;1.08;;
14169;SDS011;63889;50.596;8.690;2023-01-15T01:26:36;1.63;;;0.77;;
14169;SDS011;63889;50.596;8.690;2023-01-15T01:29:01;1.67;;;0.68;;
14169;SDS011;63889;50.596;8.690;2023-01-15T01:31:28;1.80;;;0.70;;
14169;SDS011;63889;50.596;8.690;2023-01-15T01:33:54;1.42;;;0.45;;
14169;SDS011;63889;50.596;8.690;2023-01-15T01:36:25;1.65;;;0.80;;
14169;SDS011;63889;50.596;8.690;2023-01-15T01:38:58;1.23;;;0.32;;
14169;SDS011;63889;50.596;8.690;2023-01-15T01:41:25;0.35;;;0.30;;
14169;SDS011;63889;50.596;8.690;2023-01-15T01:43:53;0.30;;;0.30;;
14169;SDS011;63889;50.596;8.690;2023-01-15T01:46:21;0.28;;;0.20;;
14169;SDS011;63889;50.596;8.690;2023-01-15T01:48:48;0.55;;;0.35;;
14169;SDS011;63889;50.596;8.690;2023-01-15T01:51:16;1.10;;;0.10;;
14169;SDS011;63889;50.596;8.690;2023-01-15T01:53:44;0.47;;;0.28;;
14169;SDS011;63889;50.596;8.690;2023-01-15T01:56:10;0.05;;;0.05;;
14169;SDS011;63889;50.596;8.690;2023-01-15T01:58:35;0.03;;;0.03;;
14169;SDS011;63889;50.596;8.690;2023-01-15T02:01:02;0.68;;;0.30;;
14169;SDS011;63889;50.596;8.690;2023-01-15T02:03:33;0.20;;;0.20;;
14169;SDS011;63889;50.596;8.690;2023-01-15T02:06:01;0.10;;;0.10;;
14169;SDS011;63889;50.596;8.690;2023-01-15T02:08:30;1.10;;;0.10;;
14169;SDS011;63889;50.596;8.690;2023-01-15T02:10:56;0.40;;;0.15;;
14169;SDS011;63889;50.596;8.690;2023-01-15T02:16:14;0.10;;;0.10;;
14169;SDS011;63889;50.596;8.690;2023-01-15T02:21:40;0.22;;;0.10;;
14169;SDS011;63889;50.596;8.690;2023-01-15T02:27:19;2.15;;;0.30;;
14169;SDS011;63889;50.596;8.690;2023-01-15T02:29:48;1.67;;;0.10;;
14169;SDS011;63889;50.596;8.690;2023-01-15T02:35:17;0.10;;;0.00;;
14169;SDS011;63889;50.596;8.690;2023-01-15T02:37:50;0.10;;;0.00;;
14169;SDS011;63889;50.596;8.690;2023-01-15T02:40:21;0.55;;;0.10;;
14169;SDS011;63889;50.596;8.690;2023-01-15T02:42:48;0.10;;;0.10;;
14169;SDS011;63889;50.596;8.690;2023-01-15T02:45:15;0.00;;;0.00;;
14169;SDS011;63889;50.596;8.690;2023-01-15T02:47:48;0.00;;;0.00;;
14169;SDS011;63889;50.596;8.690;2023-01-15T02:50:18;0.20;;;0.10;;
14169;SDS011;63889;50.596;8.690;2023-01-15T02:52:51;0.00;;;0.00;;
14169;SDS011;63889;50.596;8.690;2023-01-15T02:55:21;0.10;;;0.10;;
14169;SDS011;63889;50.596;8.690;2023-01-15T02:57:50;0.03;;;0.03;;
14169;SDS011;63889;50.596;8.690;2023-01-15T03:00:19;0.00;;;0.00;;
14169;SDS011;63889;50.596;8.690;2023-01-15T03:02:49;0.00;;;0.00;;
14169;SDS011;63889;50.596;8.690;2023-01-15T03:05:21;0.52;;;0.08;;
14169;SDS011;63889;50.596;8.690;2023-01-15T03:07:53;0.00;;;0.00;;
14169;SDS011;63889;50.596;8.690;2023-01-15T03:10:22;0.85;;;0.17;;
14169;SDS011;63889;50.596;8.690;2023-01-15T03:12:56;0.10;;;0.10;;
14169;SDS011;63889;50.596;8.690;2023-01-15T03:16:13;0.10;;;0.10;;
14169;SDS011;63889;50.596;8.690;2023-01-15T03:18:35;0.10;;;0.10;;
14169;SDS011;63889;50.596;8.690;2023-01-15T03:21:07;0.20;;;0.20;;
14169;SDS011;63889;50.596;8.690;2023-01-15T03:23:37;1.40;;;0.17;;
14169;SDS011;63889;50.596;8.690;2023-01-15T03:26:07;0.10;;;0.10;;
14169;SDS011;63889;50.596;8.690;2023-01-15T03:28:34;0.43;;;0.28;;
14169;SDS011;63889;50.596;8.690;2023-01-15T03:31:02;0.20;;;0.10;;
14169;SDS011;63889;50.596;8.690;2023-01-15T03:33:28;0.10;;;0.10;;
14169;SDS011;63889;50.596;8.690;2023-01-15T03:35:55;0.17;;;0.10;;
14169;SDS011;63889;50.596;8.690;2023-01-15T03:38:24;0.35;;;0.20;;
14169;SDS011;63889;50.596;8.690;2023-01-15T03:44:00;0.03;;;0.00;;
14169;SDS011;63889;50.596;8.690;2023-01-15T03:46:53;1.08;;;0.10;;
14169;SDS011;63889;50.596;8.690;2023-01-15T03:49:35;1.55;;;0.20;;
14169;SDS011;63889;50.596;8.690;2023-01-15T03:52:10;0.10;;;0.10;;
14169;SDS011;63889;50.596;8.690;2023-01-15T04:00:55;0.57;;;0.20;;
14169;SDS011;63889;50.596;8.690;2023-01-15T04:03:00;0.10;;;0.10;;
14169;SDS011;63889;50.596;8.690;2023-01-15T04:05:27;0.95;;;0.20;;
14169;SDS011;63889;50.596;8.690;2023-01-15T04:07:54;2.20;;;0.22;;
14169;SDS011;63889;50.596;8.690;2023-01-15T04:10:21;1.27;;;0.10;;
14169;SDS011;63889;50.596;8.690;2023-01-15T04:12:47;0.50;;;0.15;;
14169;SDS011;63889;50.596;8.690;2023-01-15T04:15:13;0.00;;;0.00;;
14169;SDS011;63889;50.596;8.690;2023-01-15T04:17:39;0.30;;;0.10;;
14169;SDS011;63889;50.596;8.690;2023-01-15T04:20:05;0.47;;;0.15;;
14169;SDS011;63889;50.596;8.690;2023-01-15T04:22:31;0.10;;;0.10;;
14169;SDS011;63889;50.596;8.690;2023-01-15T04:24:57;0.35;;;0.20;;
14169;SDS011;63889;50.596;8.690;2023-01-15T04:27:23;0.00;;;0.00;;
14169;SDS011;63889;50.596;8.690;2023-01-15T04:29:48;0.20;;;0.10;;
14169;SDS011;63889;50.596;8.690;2023-01-15T04:32:14;0.52;;;0.13;;
14169;SDS011;63889;50.596;8.690;2023-01-15T04:34:39;0.10;;;0.08;;
14169;SDS011;63889;50.596;8.690;2023-01-15T04:37:05;0.10;;;0.00;;
14169;SDS011;63889;50.596;8.690;2023-01-15T04:39:31;3.10;;;0.35;;
14169;SDS011;63889;50.596;8.690;2023-01-15T04:41:56;0.85;;;0.10;;
14169;SDS011;63889;50.596;8.690;2023-01-15T04:44:41;0.20;;;0.00;;
14169;SDS011;63889;50.596;8.690;2023-01-15T04:47:06;2.30;;;0.13;;
14169;SDS011;63889;50.596;8.690;2023-01-15T04:49:32;0.10;;;0.10;;
14169;SDS011;63889;50.596;8.690;2023-01-15T04:51:58;4.55;;;0.30;;
14169;SDS011;63889;50.596;8.690;2023-01-15T04:54:24;0.50;;;0.20;;
14169;SDS011;63889;50.596;8.690;2023-01-15T04:56:50;0.10;;;0.10;;
14169;SDS011;63889;50.596;8.690;2023-01-15T04:59:19;0.40;;;0.10;;
14169;SDS011;63889;50.596;8.690;2023-01-15T05:01:46;3.47;;;0.05;;
14169;SDS011;63889;50.596;8.690;2023-01-15T05:04:12;0.95;;;0.15;;
14169;SDS011;63889;50.596;8.690;2023-01-15T05:06:37;0.20;;;0.20;;
14169;SDS011;63889;50.596;8.690;2023-01-15T05:09:03;0.38;;;0.20;;
14169;SDS011;63889;50.596;8.690;2023-01-15T05:11:30;1.00;;;0.30;;
14169;SDS011;63889;50.596;8.690;2023-01-15T05:13:58;0.20;;;0.13;;
14169;SDS011;63889;50.596;8.690;2023-01-15T05:16:24;0.10;;;0.10;;
14169;SDS011;63889;50.596;8.690;2023-01-15T05:18:51;0.77;;;0.10;;
14169;SDS011;63889;50.596;8.690;2023-01-15T05:23:49;3.15;;;0.57;;
14169;SDS011;63889;50.596;8.690;2023-01-15T05:26:16;1.75;;;0.38;;
14169;SDS011;63889;50.596;8.690;2023-01-15T05:28:43;0.57;;;0.17;;
14169;SDS011;63889;50.596;8.690;2023-01-15T05:31:10;2.13;;;0.40;;
14169;SDS011;63889;50.596;8.690;2023-01-15T05:33:38;0.00;;;0.00;;
14169;SDS011;63889;50.596;8.690;2023-01-15T05:36:08;0.32;;;0.17;;
14169;SDS011;63889;50.596;8.690;2023-01-15T05:38:36;0.43;;;0.15;;
14169;SDS011;63889;50.596;8.690;2023-01-15T05:41:05;0.00;;;0.00;;
14169;SDS011;63889;50.596;8.690;2023-01-15T05:43:53;2.15;;;0.52;;
14169;SDS011;63889;50.596;8.690;2023-01-15T05:46:20;1.67;;;0.10;;
14169;SDS011;63889;50.596;8.690;2023-01-15T05:48:46;0.55;;;0.20;;
14169;SDS011;63889;50.596;8.690;2023-01-15T05:51:12;0.80;;;0.20;;
14169;SDS011;63889;50.596;8.690;2023-01-15T05:53:38;0.10;;;0.10;;
14169;SDS011;63889;50.596;8.690;2023-01-15T05:56:04;2.45;;;0.10;;
14169;SDS011;63889;50.596;8.690;2023-01-15T05:58:30;1.55;;;0.20;;
14169;SDS011;63889;50.596;8.690;2023-01-15T06:00:56;0.50;;;0.17;;
14169;SDS011;63889;50.596;8.690;2023-01-15T06:03:22;0.10;;;0.10;;
14169;SDS011;63889;50.596;8.690;2023-01-15T06:05:52;0.13;;;0.03;;
14169;SDS011;63889;50.596;8.690;2023-01-15T06:08:19;0.20;;;0.20;;
14169;SDS011;63889;50.596;8.690;2023-01-15T06:10:46;1.15;;;0.10;;
14169;SDS011;63889;50.596;8.690;2023-01-15T06:13:12;1.25;;;0.20;;
14169;SDS011;63889;50.596;8.690;2023-01-15T06:15:38;0.10;;;0.10;;
14169;SDS011;63889;50.596;8.690;2023-01-15T06:18:04;0.30;;;0.10;;
14169;SDS011;63889;50.596;8.690;2023-01-15T06:20:30;1.02;;;0.10;;
14169;SDS011;63889;50.596;8.690;2023-01-15T06:22:55;0.57;;;0.10;;
14169;SDS011;63889;50.596;8.690;2023-01-15T06:25:21;0.52;;;0.20;;
14169;SDS011;63889;50.596;8.690;2023-01-15T06:27:46;0.17;;;0.10;;
14169;SDS011;63889;50.596;8.690;2023-01-15T06:30:13;0.32;;;0.13;;
14169;SDS011;63889;50.596;8.690;2023-01-15T06:32:39;2.08;;;0.20;;
14169;SDS011;63889;50.596;8.690;2023-01-15T06:35:05;0.30;;;0.10;;
14169;SDS011;63889;50.596;8.690;2023-01-15T06:37:31;0.65;;;0.20;;
14169;SDS011;63889;50.596;8.690;2023-01-15T06:39:56;1.55;;;0.28;;
14169;SDS011;63889;50.596;8.690;2023-01-15T06:42:22;0.28;;;0.10;;
14169;SDS011;63889;50.596;8.690;2023-01-15T06:45:07;1.50;;;0.10;;
14169;SDS011;63889;50.596;8.690;2023-01-15T06:47:55;0.38;;;0.10;;
14169;SDS011;63889;50.596;8.690;2023-01-15T06:50:22;0.35;;;0.20;;
14169;SDS011;63889;50.596;8.690;2023-01-15T06:52:48;0.73;;;0.10;;
14169;SDS011;63889;50.596;8.690;2023-01-15T06:55:13;0.00;;;0.00;;
14169;SDS011;63889;50.596;8.690;2023-01-15T06:57:39;2.75;;;0.52;;
14169;SDS011;63889;50.596;8.690;2023-01-15T07:00:08;0.35;;;0.15;;
14169;SDS011;63889;50.596;8.690;2023-01-15T07:02:35;0.17;;;0.10;;
14169;SDS011;63889;50.596;8.690;2023-01-15T07:05:00;1.23;;;0.25;;
14169;SDS011;63889;50.596;8.690;2023-01-15T07:07:27;0.17;;;0.10;;
14169;SDS011;63889;50.596;8.690;2023-01-15T07:09:53;1.08;;;0.32;;
14169;SDS011;63889;50.596;8.690;2023-01-15T07:12:19;0.32;;;0.10;;
14169;SDS011;63889;50.596;8.690;2023-01-15T07:14:45;1.55;;;0.20;;
14169;SDS011;63889;50.596;8.690;2023-01-15T07:17:10;3.40;;;0.30;;
14169;SDS011;63889;50.596;8.690;2023-01-15T07:19:36;0.85;;;0.20;;
14169;SDS011;63889;50.596;8.690;2023-01-15T07:22:02;5.22;;;0.15;;
14169;SDS011;63889;50.596;8.690;2023-01-15T07:24:29;1.90;;;0.20;;
14169;SDS011;63889;50.596;8.690;2023-01-15T07:26:54;0.82;;;0.38;;
14169;SDS011;63889;50.596;8.690;2023-01-15T07:29:20;0.98;;;0.20;;
14169;SDS011;63889;50.596;8.690;2023-01-15T07:31:45;0.93;;;0.20;;
14169;SDS011;63889;50.596;8.690;2023-01-15T07:34:11;1.95;;;0.30;;
14169;SDS011;63889;50.596;8.690;2023-01-15T07:36:37;2.50;;;0.32;;
14169;SDS011;63889;50.596;8.690;2023-01-15T07:39:03;1.00;;;0.22;;
14169;SDS011;63889;50.596;8.690;2023-01-15T07:41:30;0.88;;;0.00;;
14169;SDS011;63889;50.596;8.690;2023-01-15T07:44:14;3.42;;;0.55;;
14169;SDS011;63889;50.596;8.690;2023-01-15T07:46:58;0.10;;;0.10;;
14169;SDS011;63889;50.596;8.690;2023-01-15T07:49:42;1.67;;;0.10;;
14169;SDS011;63889;50.596;8.690;2023-01-15T07:52:12;1.88;;;0.20;;
14169;SDS011;63889;50.596;8.690;2023-01-15T07:54:43;1.27;;;0.03;;
14169;SDS011;63889;50.596;8.690;2023-01-15T07:57:10;0.80;;;0.28;;
14169;SDS011;63889;50.596;8.690;2023-01-15T07:59:37;0.52;;;0.20;;
14169;SDS011;63889;50.596;8.690;2023-01-15T08:02:03;0.20;;;0.20;;
14169;SDS011;63889;50.596;8.690;2023-01-15T08:04:29;0.10;;;0.10;;
14169;SDS011;63889;50.596;8.690;2023-01-15T08:06:54;0.75;;;0.00;;
14169;SDS011;63889;50.596;8.690;2023-01-15T08:09:20;0.75;;;0.20;;
14169;SDS011;63889;50.596;8.690;2023-01-15T08:11:45;1.92;;;0.20;;
14169;SDS011;63889;50.596;8.690;2023-01-15T08:14:29;1.17;;;0.00;;
14169;SDS011;63889;50.596;8.690;2023-01-15T08:17:13;0.00;;;0.00;;
14169;SDS011;63889;50.596;8.690;2023-01-15T08:19:39;1.65;;;0.10;;
14169;SDS011;63889;50.596;8.690;2023-01-15T08:22:04;0.10;;;0.10;;
14169;SDS011;63889;50.596;8.690;2023-01-15T08:24:30;3.38;;;1.15;;
14169;SDS011;63889;50.596;8.690;2023-01-15T08:26:55;2.72;;;0.00;;
14169;SDS011;63889;50.596;8.690;2023-01-15T08:29:21;0.85;;;0.08;;
14169;SDS011;63889;50.596;8.690;2023-01-15T08:31:47;2.55;;;0.20;;
14169;SDS011;63889;50.596;8.690;2023-01-15T08:34:12;0.20;;;0.03;;
14169;SDS011;63889;50.596;8.690;2023-01-15T08:36:38;0.65;;;0.20;;
14169;SDS011;63889;50.596;8.690;2023-01-15T08:39:04;0.15;;;0.15;;
14169;SDS011;63889;50.596;8.690;2023-01-15T08:41:29;0.10;;;0.10;;
14169;SDS011;63889;50.596;8.690;2023-01-15T08:43:55;1.30;;;0.10;;
14169;SDS011;63889;50.596;8.690;2023-01-15T08:46:21;0.40;;;0.10;;
14169;SDS011;63889;50.596;8.690;2023-01-15T08:48:47;1.55;;;0.20;;
14169;SDS011;63889;50.596;8.690;2023-01-15T08:51:13;0.75;;;0.15;;
14169;SDS011;63889;50.596;8.690;2023-01-15T08:53:39;0.10;;;0.00;;
14169;SDS011;63889;50.596;8.690;2023-01-15T08:56:12;0.17;;;0.10;;
14169;SDS011;63889;50.596;8.690;2023-01-15T08:58:38;0.70;;;0.13;;
14169;SDS011;63889;50.596;8.690;2023-01-15T09:01:04;0.15;;;0.10;;
14169;SDS011;63889;50.596;8.690;2023-01-15T09:03:31;0.63;;;0.15;;
14169;SDS011;63889;50.596;8.690;2023-01-15T09:05:58;0.60;;;0.20;;
14169;SDS011;63889;50.596;8.690;2023-01-15T09:08:25;0.20;;;0.15;;
14169;SDS011;63889;50.596;8.690;2023-01-15T09:10:55;0.40;;;0.30;;
14169;SDS011;63889;50.596;8.690;2023-01-15T09:13:24;0.08;;;0.08;;
14169;SDS011;63889;50.596;8.690;2023-01-15T09:15:50;0.40;;;0.30;;
14169;SDS011;63889;50.596;8.690;2023-01-15T09:18:16;1.55;;;0.30;;
14169;SDS011;63889;50.596;8.690;2023-01-15T09:20:43;0.80;;;0.20;;
14169;SDS011;63889;50.596;8.690;2023-01-15T09:23:09;0.57;;;0.10;;
14169;SDS011;63889;50.596;8.690;2023-01-15T09:25:35;0.20;;;0.20;;
14169;SDS011;63889;50.596;8.690;2023-01-15T09:28:00;0.30;;;0.10;;
14169;SDS011;63889;50.596;8.690;2023-01-15T09:30:29;0.17;;;0.15;;
14169;SDS011;63889;50.596;8.690;2023-01-15T09:32:55;1.08;;;0.35;;
14169;SDS011;63889;50.596;8.690;2023-01-15T09:35:20;0.30;;;0.20;;
14169;SDS011;63889;50.596;8.690;2023-01-15T09:37:50;0.45;;;0.20;;
14169;SDS011;63889;50.596;8.690;2023-01-15T09:41:06;0.13;;;0.10;;
14169;SDS011;63889;50.596;8.690;2023-01-15T09:43:08;0.55;;;0.20;;
14169;SDS011;63889;50.596;8.690;2023-01-15T09:45:55;0.30;;;0.20;;
14169;SDS011;63889;50.596;8.690;2023-01-15T09:48:37;0.90;;;0.30;;
14169;SDS011;63889;50.596;8.690;2023-01-15T09:53:49;2.15;;;0.40;;
14169;SDS011;63889;50.596;8.690;2023-01-15T09:56:29;2.95;;;0.17;;
14169;SDS011;63889;50.596;8.690;2023-01-15T09:58:57;0.20;;;0.20;;
14169;SDS011;63889;50.596;8.690;2023-01-15T10:01:28;1.25;;;0.25;;
14169;SDS011;63889;50.596;8.690;2023-01-15T10:04:07;2.07;;;0.40;;
14169;SDS011;63889;50.596;8.690;2023-01-15T10:09:46;0.75;;;0.25;;
14169;SDS011;63889;50.596;8.690;2023-01-15T10:12:20;0.20;;;0.20;;
14169;SDS011;63889;50.596;8.690;2023-01-15T10:15:09;1.10;;;0.30;;
14169;SDS011;63889;50.596;8.690;2023-01-15T10:17:44;1.58;;;0.43;;
14169;SDS011;63889;50.596;8.690;2023-01-15T10:25:41;0.40;;;0.20;;
14169;SDS011;63889;50.596;8.690;2023-01-15T10:28:27;0.80;;;0.45;;
14169;SDS011;63889;50.596;8.690;2023-01-15T10:30:55;1.40;;;0.30;;
14169;SDS011;63889;50.596;8.690;2023-01-15T10:35:58;4.25;;;0.30;;
14169;SDS011;63889;50.596;8.690;2023-01-15T10:38:32;0.93;;;0.30;;
14169;SDS011;63889;50.596;8.690;2023-01-15T10:44:12;0.30;;;0.17;;
14169;SDS011;63889;50.596;8.690;2023-01-15T10:46:52;0.45;;;0.30;;
14169;SDS011;63889;50.596;8.690;2023-01-15T10:49:27;2.05;;;0.40;;
14169;SDS011;63889;50.596;8.690;2023-01-15T10:52:02;0.30;;;0.20;;
14169;SDS011;63889;50.596;8.690;2023-01-15T10:54:41;1.40;;;0.30;;
14169;SDS011;63889;50.596;8.690;2023-01-15T10:57:17;0.25;;;0.10;;
14169;SDS011;63889;50.596;8.690;2023-01-15T11:00:05;0.47;;;0.13;;
14169;SDS011;63889;50.596;8.690;2023-01-15T11:02:38;0.65;;;0.30;;
14169;SDS011;63889;50.596;8.690;2023-01-15T11:05:11;0.30;;;0.10;;
14169;SDS011;63889;50.596;8.690;2023-01-15T11:07:40;0.22;;;0.20;;
14169;SDS011;63889;50.596;8.690;2023-01-15T11:10:09;1.45;;;0.20;;
14169;SDS011;63889;50.596;8.690;2023-01-15T11:12:38;2.33;;;0.30;;
14169;SDS011;63889;50.596;8.690;2023-01-15T11:15:23;1.20;;;0.50;;
14169;SDS011;63889;50.596;8.690;2023-01-15T11:18:13;0.32;;;0.20;;
14169;SDS011;63889;50.596;8.690;2023-01-15T11:21:17;1.00;;;0.13;;
14169;SDS011;63889;50.596;8.690;2023-01-15T11:23:45;1.27;;;0.20;;
14169;SDS011;63889;50.596;8.690;2023-01-15T11:26:16;1.70;;;0.50;;
14169;SDS011;63889;50.596;8.690;2023-01-15T11:28:53;0.20;;;0.17;;
14169;SDS011;63889;50.596;8.690;2023-01-15T11:31:20;2.13;;;0.30;;
14169;SDS011;63889;50.596;8.690;2023-01-15T11:34:00;2.28;;;0.22;;
14169;SDS011;63889;50.596;8.690;2023-01-15T11:36:27;1.65;;;0.28;;
14169;SDS011;63889;50.596;8.690;2023-01-15T11:38:53;1.27;;;0.82;;
14169;SDS011;63889;50.596;8.690;2023-01-15T11:44:15;1.30;;;0.30;;
14169;SDS011;63889;50.596;8.690;2023-01-15T11:47:11;1.75;;;0.47;;
14169;SDS011;63889;50.596;8.690;2023-01-15T11:52:46;2.83;;;0.30;;
14169;SDS011;63889;50.596;8.690;2023-01-15T11:55:17;6.22;;;0.88;;
14169;SDS011;63889;50.596;8.690;2023-01-15T11:57:45;2.03;;;0.43;;
14169;SDS011;63889;50.596;8.690;2023-01-15T12:00:18;1.98;;;0.35;;
14169;SDS011;63889;50.596;8.690;2023-01-15T12:02:46;1.10;;;0.25;;
14169;SDS011;63889;50.596;8.690;2023-01-15T12:05:26;6.05;;;1.08;;
14169;SDS011;63889;50.596;8.690;2023-01-15T12:07:56;6.40;;;0.60;;
14169;SDS011;63889;50.596;8.690;2023-01-15T12:10:26;4.65;;;0.80;;
14169;SDS011;63889;50.596;8.690;2023-01-15T12:16:22;2.15;;;0.28;;
14169;SDS011;63889;50.596;8.690;2023-01-15T12:35:45;1.63;;;0.70;;
14169;SDS011;63889;50.596;8.690;2023-01-15T12:38:22;2.97;;;0.35;;
14169;SDS011;63889;50.596;8.690;2023-01-15T12:41:03;1.83;;;0.45;;
14169;SDS011;63889;50.596;8.690;2023-01-15T12:43:35;4.55;;;0.68;;
14169;SDS011;63889;50.596;8.690;2023-01-15T12:46:23;2.10;;;0.52;;
14169;SDS011;63889;50.596;8.690;2023-01-15T12:48:56;0.95;;;0.40;;
14169;SDS011;63889;50.596;8.690;2023-01-15T12:51:48;5.50;;;0.40;;
14169;SDS011;63889;50.596;8.690;2023-01-15T12:54:21;3.33;;;0.90;;
14169;SDS011;63889;50.596;8.690;2023-01-15T12:57:15;2.95;;;0.43;;
14169;SDS011;63889;50.596;8.690;2023-01-15T13:00:29;4.32;;;0.63;;
14169;SDS011;63889;50.596;8.690;2023-01-15T13:05:45;1.92;;;0.55;;
14169;SDS011;63889;50.596;8.690;2023-01-15T13:08:23;0.60;;;0.47;;
14169;SDS011;63889;50.596;8.690;2023-01-15T13:11:00;4.35;;;0.40;;
14169;SDS011;63889;50.596;8.690;2023-01-15T13:13:29;4.07;;;0.60;;
14169;SDS011;63889;50.596;8.690;2023-01-15T13:16:18;4.40;;;1.35;;
14169;SDS011;63889;50.596;8.690;2023-01-15T13:21:26;2.85;;;0.70;;
14169;SDS011;63889;50.596;8.690;2023-01-15T13:24:11;1.60;;;0.40;;
14169;SDS011;63889;50.596;8.690;2023-01-15T13:32:33;4.13;;;0.57;;
14169;SDS011;63889;50.596;8.690;2023-01-15T13:35:30;3.05;;;0.70;;
14169;SDS011;63889;50.596;8.690;2023-01-15T13:37:59;2.25;;;0.98;;
14169;SDS011;63889;50.596;8.690;2023-01-15T13:40:41;4.22;;;0.52;;
14169;SDS011;63889;50.596;8.690;2023-01-15T13:43:20;0.65;;;0.30;;
14169;SDS011;63889;50.596;8.690;2023-01-15T13:45:58;3.15;;;0.60;;
14169;SDS011;63889;50.596;8.690;2023-01-15T13:48:46;1.60;;;0.57;;
14169;SDS011;63889;50.596;8.690;2023-01-15T13:51:33;2.35;;;0.45;;
14169;SDS011;63889;50.596;8.690;2023-01-15T13:54:09;0.98;;;0.25;;
14169;SDS011;63889;50.596;8.690;2023-01-15T13:56:40;3.22;;;0.40;;
14169;SDS011;63889;50.596;8.690;2023-01-15T13:59:37;4.00;;;0.40;;
14169;SDS011;63889;50.596;8.690;2023-01-15T14:02:20;3.10;;;0.43;;
14169;SDS011;63889;50.596;8.690;2023-01-15T14:04:47;1.52;;;0.40;;
14169;SDS011;63889;50.596;8.690;2023-01-15T14:07:20;1.13;;;0.28;;
14169;SDS011;63889;50.596;8.690;2023-01-15T14:10:06;1.50;;;0.30;;
14169;SDS011;63889;50.596;8.690;2023-01-15T14:12:57;3.72;;;0.40;;
14169;SDS011;63889;50.596;8.690;2023-01-15T14:35:21;1.67;;;0.40;;
14169;SDS011;63889;50.596;8.690;2023-01-15T14:37:48;1.08;;;0.40;;
14169;SDS011;63889;50.596;8.690;2023-01-15T14:40:21;1.67;;;1.00;;
14169;SDS011;63889;50.596;8.690;2023-01-15T14:42:50;2.25;;;0.70;;
14169;SDS011;63889;50.596;8.690;2023-01-15T14:48:18;3.38;;;0.40;;
14169;SDS011;63889;50.596;8.690;2023-01-15T14:50:46;3.47;;;0.70;;
14169;SDS011;63889;50.596;8.690;2023-01-15T14:53:18;5.22;;;0.70;;
14169;SDS011;63889;50.596;8.690;2023-01-15T14:58:44;3.20;;;0.50;;
14169;SDS011;63889;50.596;8.690;2023-01-15T15:03:53;1.23;;;0.52;;
14169;SDS011;63889;50.596;8.690;2023-01-15T15:06:30;4.45;;;1.02;;
14169;SDS011;63889;50.596;8.690;2023-01-15T15:09:01;0.93;;;0.40;;
14169;SDS011;63889;50.596;8.690;2023-01-15T15:11:34;8.13;;;1.00;;
14169;SDS011;63889;50.596;8.690;2023-01-15T15:14:24;4.95;;;1.90;;
14169;SDS011;63889;50.596;8.690;2023-01-15T15:16:50;1.58;;;0.80;;
14169;SDS011;63889;50.596;8.690;2023-01-15T15:19:25;7.28;;;0.73;;
14169;SDS011;63889;50.596;8.690;2023-01-15T15:21:54;2.17;;;0.90;;
14169;SDS011;63889;50.596;8.690;2023-01-15T15:24:25;2.17;;;0.52;;
14169;SDS011;63889;50.596;8.690;2023-01-15T15:26:54;4.35;;;0.77;;
14169;SDS011;63889;50.596;8.690;2023-01-15T15:29:20;1.02;;;0.50;;
14169;SDS011;63889;50.596;8.690;2023-01-15T15:31:47;3.90;;;0.80;;
14169;SDS011;63889;50.596;8.690;2023-01-15T15:36:56;5.93;;;1.08;;
14169;SDS011;63889;50.596;8.690;2023-01-15T15:42:10;3.05;;;0.80;;
14169;SDS011;63889;50.596;8.690;2023-01-15T15:45:00;4.72;;;1.10;;
14169;SDS011;63889;50.596;8.690;2023-01-15T15:48:08;5.75;;;1.00;;
14169;SDS011;63889;50.596;8.690;2023-01-15T15:50:55;3.85;;;1.13;;
14169;SDS011;63889;50.596;8.690;2023-01-15T15:53:20;2.67;;;0.98;;
14169;SDS011;63889;50.596;8.690;2023-01-15T15:55:46;5.10;;;0.70;;
14169;SDS011;63889;50.596;8.690;2023-01-15T15:58:16;5.03;;;0.88;;
14169;SDS011;63889;50.596;8.690;2023-01-15T16:00:48;1.42;;;0.55;;
14169;SDS011;63889;50.596;8.690;2023-01-15T16:03:19;2.17;;;0.35;;
14169;SDS011;63889;50.596;8.690;2023-01-15T16:06:21;0.93;;;0.43;;
14169;SDS011;63889;50.596;8.690;2023-01-15T16:08:53;1.98;;;0.65;;
14169;SDS011;63889;50.596;8.690;2023-01-15T16:11:20;3.03;;;0.60;;
14169;SDS011;63889;50.596;8.690;2023-01-15T16:13:50;2.05;;;0.80;;
14169;SDS011;63889;50.596;8.690;2023-01-15T16:16:17;7.10;;;1.05;;
14169;SDS011;63889;50.596;8.690;2023-01-15T16:18:46;3.58;;;0.60;;
14169;SDS011;63889;50.596;8.690;2023-01-15T16:21:22;2.10;;;0.65;;
14169;SDS011;63889;50.596;8.690;2023-01-15T16:23:56;3.25;;;0.63;;
14169;SDS011;63889;50.596;8.690;2023-01-15T16:26:42;1.63;;;0.50;;
14169;SDS011;63889;50.596;8.690;2023-01-15T16:29:19;2.92;;;0.55;;
14169;SDS011;63889;50.596;8.690;2023-01-15T16:31:48;4.50;;;1.23;;
14169;SDS011;63889;50.596;8.690;2023-01-15T16:34:15;3.55;;;0.90;;
14169;SDS011;63889;50.596;8.690;2023-01-15T16:36:45;1.85;;;0.63;;
14169;SDS011;63889;50.596;8.690;2023-01-15T16:41:58;4.03;;;0.47;;
14169;SDS011;63889;50.596;8.690;2023-01-15T16:46:54;6.15;;;1.20;;
14169;SDS011;63889;50.596;8.690;2023-01-15T16:49:25;1.80;;;0.80;;
14169;SDS011;63889;50.596;8.690;2023-01-15T16:51:53;5.43;;;1.25;;
14169;SDS011;63889;50.596;8.690;2023-01-15T16:57:04;4.63;;;1.40;;
14169;SDS011;63889;50.596;8.690;2023-01-15T17:02:20;3.95;;;0.68;;
14169;SDS011;63889;50.596;8.690;2023-01-15T17:04:46;7.07;;;1.10;;
14169;SDS011;63889;50.596;8.690;2023-01-15T17:09:38;5.75;;;1.70;;
14169;SDS011;63889;50.596;8.690;2023-01-15T17:12:23;8.40;;;2.60;;
14169;SDS011;63889;50.596;8.690;2023-01-15T17:17:39;5.60;;;1.23;;